createdAt,value
2018-09-13T00:06:07.998Z,60.9
2018-09-13T00:16:10.021Z,61.1
2018-09-13T00:26:11.653Z,61.2
2018-09-13T00:36:13.884Z,61.3
2018-09-13T00:46:15.689Z,61.7
2018-09-13T00:56:17.521Z,61.6
2018-09-13T01:06:19.453Z,61.7
2018-09-13T01:16:21.536Z,61.7
2018-09-13T01:26:22.925Z,61.7
2018-09-13T01:36:24.502Z,61.8
2018-09-13T01:46:26.875Z,61.9
2018-09-13T01:56:28.799Z,61.8
2018-09-13T02:06:31.052Z,61.8
2018-09-13T02:16:33.441Z,61.8
2018-09-13T02:26:35.356Z,61.9
2018-09-13T02:36:37.995Z,62
2018-09-13T02:46:40.067Z,62
2018-09-13T02:56:42.327Z,62
2018-09-13T03:06:44.177Z,62
2018-09-13T03:16:46.024Z,62.1
2018-09-13T03:26:48.363Z,62
2018-09-13T03:36:50.388Z,61.9
2018-09-13T03:46:51.974Z,61.9
2018-09-13T03:56:54.093Z,61.9
2018-09-13T04:06:56.374Z,62.3
2018-09-13T04:16:58.329Z,62.1
2018-09-13T04:27:00.142Z,61.9
2018-09-13T04:37:01.964Z,61.8
2018-09-13T04:47:03.789Z,63
2018-09-13T04:57:05.234Z,62.6
2018-09-13T05:07:07.320Z,61.4
2018-09-13T05:17:09.189Z,61.8
2018-09-13T05:27:10.724Z,61.8
2018-09-13T05:37:12.431Z,61.9
2018-09-13T05:47:14.794Z,61.9
2018-09-13T05:57:16.689Z,62
2018-09-13T06:07:18.648Z,62
2018-09-13T06:17:20.111Z,62.1
2018-09-13T06:27:22.424Z,62.1
2018-09-13T06:37:24.765Z,62.1
2018-09-13T06:47:26.838Z,62.1
2018-09-13T06:57:29.312Z,62.1
2018-09-13T07:07:31.168Z,62.1
2018-09-13T07:17:33.149Z,62.1
2018-09-13T07:27:35.099Z,62.1
2018-09-13T07:37:37.231Z,62.1
2018-09-13T07:47:39.192Z,62.1
2018-09-13T07:57:41.277Z,62
2018-09-13T08:07:43.568Z,62
2018-09-13T08:17:45.215Z,62
2018-09-13T08:27:47.134Z,61.9
2018-09-13T08:37:48.735Z,61.9
2018-09-13T08:47:51.155Z,61.8
2018-09-13T08:57:52.932Z,61.8
2018-09-13T09:07:55.231Z,61.8
2018-09-13T09:17:57.053Z,61.8
2018-09-13T09:27:58.646Z,61.7
2018-09-13T09:38:00.270Z,61.7
2018-09-13T09:48:02.424Z,61.6
2018-09-13T09:58:04.593Z,61.6
2018-09-13T10:08:06.220Z,61.6
2018-09-13T10:18:07.642Z,61.7
2018-09-13T10:28:09.925Z,61.7
2018-09-13T10:38:11.742Z,61.5
2018-09-13T10:48:13.906Z,61.5
2018-09-13T10:58:15.365Z,61.4
2018-09-13T11:08:17.268Z,61.5
2018-09-13T11:18:19.265Z,61.4
2018-09-13T11:28:21.287Z,61.4
2018-09-13T11:38:23.369Z,61.4
2018-09-13T11:48:25.820Z,61.4
2018-09-13T11:58:28.263Z,61.4
2018-09-13T12:08:30.379Z,61.5
2018-09-13T12:18:32.409Z,61.5
2018-09-13T12:28:34.064Z,61.5
2018-09-13T12:38:35.909Z,61.4
2018-09-13T12:48:37.935Z,61.5
2018-09-13T12:58:39.781Z,61.4
2018-09-13T13:08:41.619Z,61.4
2018-09-13T13:18:43.738Z,61.3
2018-09-13T13:28:45.271Z,61.3
2018-09-13T13:38:47.255Z,61.3
2018-09-13T13:48:48.841Z,61.3
2018-09-13T13:58:50.815Z,61.3
2018-09-13T14:08:52.613Z,61.3
2018-09-13T14:18:53.820Z,61.3
2018-09-13T14:28:55.627Z,61.3
2018-09-13T14:38:57.606Z,61.3
2018-09-13T14:48:59.509Z,61.3
2018-09-13T14:59:01.859Z,61.3
2018-09-13T15:09:03.652Z,61.3
2018-09-13T15:19:05.045Z,60.2
2018-09-13T15:29:06.921Z,59
2018-09-13T15:39:08.924Z,59.2
2018-09-13T15:49:10.754Z,58.4
2018-09-13T15:59:12.609Z,56.9
2018-09-13T16:09:14.528Z,56.4
2018-09-13T16:19:16.652Z,56.4
2018-09-13T16:29:18.647Z,56.4
2018-09-13T16:39:20.221Z,56.3
2018-09-13T16:49:22.588Z,56.2
2018-09-13T16:59:25.359Z,56.1
2018-09-13T17:09:27.597Z,56.2
2018-09-13T17:19:29.821Z,56.3
2018-09-13T17:29:31.557Z,56.4
2018-09-13T17:39:33.643Z,56.5
2018-09-13T17:49:35.933Z,56.5
2018-09-13T17:59:38.235Z,56.4
2018-09-13T18:09:40.308Z,56.9
2018-09-13T18:19:41.993Z,57.6
2018-09-13T18:29:44.498Z,57.9
2018-09-13T18:39:46.317Z,58.1
2018-09-13T18:49:48.071Z,58.2
2018-09-13T18:59:50.172Z,58.4
2018-09-13T19:09:52.040Z,58.6
2018-09-13T19:19:53.044Z,58.7
2018-09-13T19:29:55.279Z,58.9
2018-09-13T19:39:57.401Z,59
2018-09-13T19:49:59.524Z,59.2
2018-09-13T20:00:01.110Z,59.3
2018-09-13T20:10:02.671Z,59.3
2018-09-13T20:20:04.419Z,59.4
2018-09-13T20:30:06.617Z,59.5
2018-09-13T20:40:07.961Z,59.9
2018-09-13T20:50:09.494Z,60.2
2018-09-13T21:00:11.509Z,60.4
2018-09-13T21:10:13.290Z,60.6
2018-09-13T21:20:15.371Z,60.8
2018-09-13T21:30:17.184Z,60.9
2018-09-13T21:40:19.190Z,61.1
2018-09-13T21:50:20.763Z,61.1
2018-09-13T22:00:22.152Z,61.2
2018-09-13T22:10:24.164Z,61.3
2018-09-13T22:20:26.449Z,61.4
2018-09-13T22:30:28.611Z,61.6
2018-09-13T22:40:30.794Z,61.7
2018-09-13T22:50:32.351Z,61.9
2018-09-13T23:00:34.815Z,61.8
2018-09-13T23:10:36.798Z,61.8
2018-09-13T23:20:39.050Z,61.9
2018-09-13T23:30:41.043Z,61.9
2018-09-13T23:40:42.544Z,62.1
2018-09-13T23:50:44.129Z,62.2
